Time;durP1;ratioP1;P1;durP2;ratioP2;P2;SDS_P1;SDS_P2;PMS_P1;PMS_P2;Temp;Humidity;BMP_temperature;BMP_pressure;BME280_temperature;BME280_humidity;BME280_pressure;Samples;Min_cycle;Max_cycle;Signal;HPM_P1;HPM_P2
2021/12/27 00:02:06;;;;;;;8.37;7.57;;;7.00;99.90;;;;;;4730136;29;20851;-92
2021/12/27 00:04:32;;;;;;;12.87;10.70;;;7.00;99.90;;;;;;4735207;29;20244;-91
2021/12/27 00:06:58;;;;;;;9.80;8.90;;;6.90;99.90;;;;;;4743316;29;20465;-91
2021/12/27 00:09:24;;;;;;;9.20;8.27;;;6.80;99.90;;;;;;4744245;29;20457;-92
2021/12/27 00:11:49;;;;;;;9.97;8.97;;;6.80;99.90;;;;;;4757106;29;20220;-91
2021/12/27 00:14:15;;;;;;;8.77;7.93;;;6.80;99.90;;;;;;4774013;29;20209;-92
2021/12/27 00:16:48;;;;;;;8.20;7.40;;;6.90;99.90;;;;;;4760077;29;20539;-92
2021/12/27 00:19:14;;;;;;;7.93;7.20;;;6.90;99.90;;;;;;4733406;29;20479;-91
2021/12/27 00:21:39;;;;;;;8.77;7.97;;;6.90;99.90;;;;;;4737493;29;20251;-91
2021/12/27 00:24:06;;;;;;;9.00;7.77;;;6.90;99.90;;;;;;4744512;29;20230;-90
2021/12/27 00:26:32;;;;;;;10.17;9.00;;;6.90;99.90;;;;;;4738269;29;20201;-91
2021/12/27 00:28:57;;;;;;;10.53;9.47;;;6.80;99.90;;;;;;4733562;29;20848;-91
2021/12/27 00:31:23;;;;;;;9.20;8.30;;;6.80;99.90;;;;;;4749137;29;20309;-92
2021/12/27 00:33:49;;;;;;;10.30;8.30;;;6.80;99.90;;;;;;4737061;29;21013;-91
2021/12/27 00:36:15;;;;;;;10.10;9.07;;;6.90;99.90;;;;;;4747785;29;20197;-91
2021/12/27 00:38:40;;;;;;;9.53;8.53;;;6.80;99.90;;;;;;4747667;29;20624;-91
2021/12/27 00:41:06;;;;;;;11.53;10.33;;;6.80;99.90;;;;;;4744712;29;20221;-91
2021/12/27 00:43:38;;;;;;;10.13;9.13;;;6.90;99.90;;;;;;4734339;30;20262;-92
2021/12/27 00:46:04;;;;;;;11.43;10.33;;;6.90;99.90;;;;;;4743663;29;20201;-91
2021/12/27 00:48:30;;;;;;;11.90;10.40;;;7.00;99.90;;;;;;4745612;29;20474;-91
2021/12/27 00:50:55;;;;;;;10.77;9.67;;;6.90;99.90;;;;;;4748853;29;20566;-92
2021/12/27 00:53:21;;;;;;;11.67;9.53;;;6.90;99.90;;;;;;4734486;29;20689;-92
2021/12/27 00:55:47;;;;;;;11.57;10.47;;;7.00;99.90;;;;;;4746126;29;20192;-93
2021/12/27 00:58:13;;;;;;;11.20;10.00;;;6.90;99.90;;;;;;4735148;29;20767;-92
2021/12/27 01:00:39;;;;;;;9.07;8.27;;;6.90;99.90;;;;;;4737526;29;20571;-92
2021/12/27 01:03:06;;;;;;;9.67;8.67;;;6.90;99.90;;;;;;4736589;29;20367;-92
2021/12/27 01:05:39;;;;;;;8.63;7.83;;;6.90;99.90;;;;;;4748280;29;20465;-93
2021/12/27 01:08:06;;;;;;;9.03;7.87;;;6.90;99.90;;;;;;4734031;29;20884;-93
2021/12/27 01:13:24;;;;;;;8.40;7.60;;;7.10;99.90;;;;;;4746427;29;20533;-92
2021/12/27 01:18:36;;;;;;;7.30;6.60;;;7.10;99.90;;;;;;4747170;29;20478;-91
2021/12/27 01:21:02;;;;;;;7.50;6.80;;;7.10;99.90;;;;;;4732367;29;21007;-91
2021/12/27 01:23:28;;;;;;;7.40;6.60;;;7.10;99.90;;;;;;4733783;29;20497;-91
2021/12/27 01:25:54;;;;;;;7.50;6.87;;;7.10;99.90;;;;;;4742932;29;20206;-92
2021/12/27 01:28:20;;;;;;;7.90;7.20;;;7.10;99.90;;;;;;4745186;29;23772;-90
2021/12/27 01:30:48;;;;;;;6.43;5.83;;;7.10;99.90;;;;;;4729493;29;20214;-92
2021/12/27 01:33:15;;;;;;;8.17;7.50;;;7.10;99.90;;;;;;4724562;29;20467;-93
2021/12/27 01:35:41;;;;;;;6.27;5.73;;;7.10;99.90;;;;;;4734703;29;20986;-92
2021/12/27 01:38:08;;;;;;;5.90;5.40;;;7.00;99.90;;;;;;4731597;29;20842;-92
2021/12/27 01:40:34;;;;;;;7.80;6.20;;;6.90;99.90;;;;;;4742893;29;20497;-92
2021/12/27 01:43:06;;;;;;;5.97;5.40;;;6.90;99.90;;;;;;4745910;29;20490;-93
2021/12/27 01:45:34;;;;;;;5.97;5.50;;;6.80;99.90;;;;;;4747071;29;20478;-93
2021/12/27 01:47:59;;;;;;;5.93;5.43;;;6.80;99.90;;;;;;4735779;29;20475;-92
2021/12/27 01:50:26;;;;;;;5.63;5.13;;;6.70;99.90;;;;;;4746459;29;21288;-92
2021/12/27 01:52:52;;;;;;;6.40;5.73;;;6.70;99.90;;;;;;4748841;29;22214;-93
2021/12/27 01:55:18;;;;;;;6.27;5.77;;;6.70;99.90;;;;;;4738952;29;20447;-92
2021/12/27 01:57:44;;;;;;;6.27;5.70;;;6.70;99.90;;;;;;4731776;29;20201;-93
2021/12/27 02:00:10;;;;;;;6.23;5.63;;;6.70;99.90;;;;;;4734556;29;20497;-93
2021/12/27 02:02:36;;;;;;;6.97;5.73;;;6.70;99.90;;;;;;4736103;29;20363;-93
2021/12/27 02:05:02;;;;;;;6.07;5.47;;;6.70;99.90;;;;;;4746350;29;20930;-92
2021/12/27 02:07:27;;;;;;;6.07;5.43;;;6.70;99.90;;;;;;4748635;29;20560;-92
2021/12/27 02:10:02;;;;;;;5.97;5.30;;;6.80;99.90;;;;;;4739266;29;20201;-92
2021/12/27 02:12:30;;;;;;;6.80;6.10;;;6.80;99.90;;;;;;4727677;29;20205;-92
2021/12/27 02:14:56;;;;;;;6.67;6.07;;;6.70;99.90;;;;;;4732175;29;20522;-92
2021/12/27 02:17:24;;;;;;;6.37;5.73;;;6.80;99.90;;;;;;4734218;29;20900;-93
2021/12/27 02:19:52;;;;;;;7.10;6.23;;;6.80;99.90;;;;;;4734490;29;20202;-92
2021/12/27 02:22:18;;;;;;;7.23;6.53;;;6.80;99.90;;;;;;4732448;29;20513;-92
2021/12/27 02:24:43;;;;;;;8.00;7.23;;;6.80;99.90;;;;;;4745337;29;20510;-92
2021/12/27 02:27:13;;;;;;;6.83;6.00;;;6.80;99.90;;;;;;4730185;29;20478;-93
2021/12/27 02:29:39;;;;;;;6.20;5.70;;;6.90;99.90;;;;;;4728265;29;20239;-92
2021/12/27 02:32:07;;;;;;;6.37;5.77;;;6.90;99.90;;;;;;4736871;29;20558;-92
2021/12/27 02:34:33;;;;;;;6.40;5.80;;;6.90;99.90;;;;;;4743019;29;20319;-92
2021/12/27 02:37:00;;;;;;;6.10;5.50;;;6.90;99.90;;;;;;4730147;29;21072;-92
2021/12/27 02:39:28;;;;;;;6.43;5.90;;;6.90;99.90;;;;;;4747095;29;20397;-92
2021/12/27 02:41:55;;;;;;;6.90;5.70;;;6.90;99.90;;;;;;4741842;29;20768;-91
2021/12/27 02:44:20;;;;;;;6.33;5.67;;;6.90;99.90;;;;;;4731580;29;21040;-93
2021/12/27 02:46:46;;;;;;;5.83;5.30;;;7.00;99.90;;;;;;4730592;29;20466;-92
2021/12/27 02:49:12;;;;;;;6.80;5.47;;;6.90;99.90;;;;;;4735032;29;20260;-92
2021/12/27 02:51:38;;;;;;;6.00;5.50;;;6.90;99.90;;;;;;4731165;29;20290;-92
2021/12/27 02:54:04;;;;;;;5.87;5.37;;;6.90;99.90;;;;;;4733731;29;20391;-92
2021/12/27 02:56:30;;;;;;;6.20;5.37;;;6.80;99.90;;;;;;4745616;29;20878;-93
2021/12/27 02:58:57;;;;;;;4.70;4.37;;;6.80;99.90;;;;;;4734915;29;20538;-93
2021/12/27 03:01:24;;;;;;;5.03;4.63;;;6.80;99.90;;;;;;4743562;29;20566;-92
2021/12/27 03:03:51;;;;;;;4.90;4.50;;;6.80;99.90;;;;;;4731869;29;20517;-93
2021/12/27 03:06:17;;;;;;;5.90;5.23;;;6.80;99.90;;;;;;4735174;29;20463;-92
2021/12/27 03:08:45;;;;;;;6.13;5.63;;;6.70;99.90;;;;;;4744291;29;20517;-92
2021/12/27 03:11:11;;;;;;;6.03;5.53;;;6.70;99.90;;;;;;4743018;29;20496;-92
2021/12/27 03:13:43;;;;;;;7.03;6.43;;;6.70;99.90;;;;;;4729458;29;20558;-92
2021/12/27 03:16:12;;;;;;;6.50;5.90;;;6.70;99.90;;;;;;4732698;29;20517;-92
2021/12/27 03:18:41;;;;;;;6.90;6.20;;;6.70;99.90;;;;;;4732253;29;20465;-93
2021/12/27 03:21:08;;;;;;;6.87;6.27;;;6.70;99.90;;;;;;4747333;29;21056;-92
2021/12/27 03:23:37;;;;;;;6.40;5.80;;;6.70;99.90;;;;;;4747900;29;20986;-93
2021/12/27 03:26:04;;;;;;;5.87;5.33;;;6.70;99.90;;;;;;4731873;29;20480;-92
2021/12/27 03:28:31;;;;;;;6.20;5.60;;;6.70;99.90;;;;;;4730804;29;20525;-92
2021/12/27 03:31:00;;;;;;;7.40;6.77;;;6.70;99.90;;;;;;4753727;29;20470;-92
2021/12/27 03:33:26;;;;;;;7.33;6.73;;;6.70;99.90;;;;;;4753710;29;20467;-92
2021/12/27 03:36:04;;;;;;;8.47;7.10;;;6.70;99.90;;;;;;4771487;29;23825;-92
2021/12/27 03:38:41;;;;;;;7.73;6.93;;;6.70;99.90;;;;;;4734902;29;20466;-92
2021/12/27 03:41:12;;;;;;;7.53;6.50;;;6.60;99.90;;;;;;4743283;29;20532;-92
2021/12/27 03:43:38;;;;;;;6.80;6.10;;;6.60;99.90;;;;;;4733704;29;20502;-92
2021/12/27 03:46:04;;;;;;;7.40;6.80;;;6.60;99.90;;;;;;4729915;29;20465;-92
2021/12/27 03:48:30;;;;;;;7.47;6.77;;;6.60;99.90;;;;;;4730093;29;20586;-92
2021/12/27 03:50:56;;;;;;;6.93;6.33;;;6.70;99.90;;;;;;4736404;29;20522;-92
2021/12/27 03:53:22;;;;;;;6.53;5.93;;;6.70;99.90;;;;;;4737214;29;20557;-93
2021/12/27 03:55:48;;;;;;;6.57;5.90;;;6.70;99.90;;;;;;4745132;29;22160;-92
2021/12/27 03:58:45;;;;;;;7.27;6.57;;;6.70;99.90;;;;;;4745561;29;20205;-92
2021/12/27 04:01:15;;;;;;;6.70;5.90;;;6.60;99.90;;;;;;4731267;29;20376;-92
2021/12/27 04:03:46;;;;;;;6.40;5.80;;;6.50;99.90;;;;;;4736172;29;20517;-91
2021/12/27 04:06:13;;;;;;;7.57;5.73;;;6.60;99.90;;;;;;4733045;29;20911;-91
2021/12/27 04:08:38;;;;;;;5.83;5.27;;;6.50;99.90;;;;;;4737711;29;20465;-92
2021/12/27 04:11:05;;;;;;;6.27;5.67;;;6.50;99.90;;;;;;4745227;29;20694;-92
2021/12/27 04:13:30;;;;;;;7.57;6.50;;;6.40;99.90;;;;;;4738159;29;20218;-91
2021/12/27 04:15:56;;;;;;;6.30;5.80;;;6.40;99.90;;;;;;4743551;29;20460;-92
2021/12/27 04:18:23;;;;;;;6.00;5.50;;;6.40;99.90;;;;;;4747827;29;20235;-91
2021/12/27 04:20:52;;;;;;;6.50;5.77;;;6.30;99.90;;;;;;4731973;29;20554;-91
2021/12/27 04:23:26;;;;;;;5.43;4.93;;;6.10;99.90;;;;;;4735652;29;20490;-91
2021/12/27 04:25:51;;;;;;;5.90;5.37;;;6.00;99.90;;;;;;4735412;29;20857;-92
2021/12/27 04:28:19;;;;;;;6.00;5.57;;;6.00;99.90;;;;;;4736283;29;20486;-91
2021/12/27 04:30:45;;;;;;;5.60;5.10;;;6.00;99.90;;;;;;4746646;29;20209;-92
2021/12/27 04:33:11;;;;;;;5.70;5.20;;;6.00;99.90;;;;;;4739247;29;20473;-93
2021/12/27 04:35:37;;;;;;;5.30;4.90;;;6.00;99.90;;;;;;4732008;29;20505;-93
2021/12/27 04:38:04;;;;;;;6.63;4.87;;;6.00;99.90;;;;;;4736557;29;20201;-91
2021/12/27 04:40:35;;;;;;;6.00;5.50;;;6.20;99.90;;;;;;4733414;29;20479;-91
2021/12/27 04:43:08;;;;;;;5.00;4.50;;;6.20;99.90;;;;;;4738833;29;21264;-91
2021/12/27 04:45:36;;;;;;;5.37;4.87;;;6.30;99.90;;;;;;4730764;29;21127;-93
2021/12/27 04:48:03;;;;;;;4.40;4.00;;;6.40;99.90;;;;;;4763905;29;20913;-91
2021/12/27 04:50:29;;;;;;;4.93;4.53;;;6.50;99.90;;;;;;4759928;29;20454;-93
2021/12/27 04:52:55;;;;;;;4.80;4.40;;;6.50;99.90;;;;;;4741256;29;20590;-91
2021/12/27 04:55:23;;;;;;;5.03;4.63;;;6.50;99.90;;;;;;4747624;29;20479;-93
2021/12/27 04:57:49;;;;;;;5.27;4.87;;;6.50;99.90;;;;;;4746479;29;20532;-93
2021/12/27 05:00:15;;;;;;;5.50;4.90;;;6.50;99.90;;;;;;4735299;29;20486;-91
2021/12/27 05:02:40;;;;;;;5.20;4.80;;;6.40;99.90;;;;;;4732809;29;20476;-93
2021/12/27 05:05:07;;;;;;;4.87;4.47;;;6.30;99.90;;;;;;4747393;29;20485;-93
2021/12/27 05:07:32;;;;;;;4.93;4.43;;;6.30;99.90;;;;;;4747722;29;20750;-93
2021/12/27 05:09:58;;;;;;;4.87;4.47;;;6.40;99.90;;;;;;4748011;29;20608;-93
2021/12/27 05:12:24;;;;;;;4.33;3.93;;;6.30;99.90;;;;;;4746226;29;22040;-94
2021/12/27 05:14:53;;;;;;;4.63;4.23;;;6.40;99.90;;;;;;4747824;29;20205;-94
2021/12/27 05:17:24;;;;;;;4.90;4.50;;;6.30;99.90;;;;;;4743669;29;20219;-93
2021/12/27 05:19:50;;;;;;;4.73;4.40;;;6.30;99.90;;;;;;4739060;29;20462;-93
2021/12/27 05:22:15;;;;;;;4.87;4.47;;;6.30;99.90;;;;;;4746624;29;20683;-93
2021/12/27 05:24:41;;;;;;;4.00;3.70;;;6.30;99.90;;;;;;4762359;29;20213;-91
2021/12/27 05:27:09;;;;;;;4.87;4.47;;;6.40;99.90;;;;;;4758212;29;20446;-91
2021/12/27 05:29:35;;;;;;;5.30;4.80;;;6.50;99.90;;;;;;4755497;29;20253;-92
2021/12/27 05:32:01;;;;;;;4.60;4.10;;;6.50;99.90;;;;;;4730766;29;20539;-93
2021/12/27 05:34:30;;;;;;;5.30;4.80;;;6.50;99.90;;;;;;4733102;29;20942;-90
2021/12/27 05:36:56;;;;;;;4.90;4.50;;;6.50;99.90;;;;;;4739028;29;21600;-91
2021/12/27 05:39:23;;;;;;;5.27;4.87;;;6.50;99.90;;;;;;4734951;29;21082;-91
2021/12/27 05:41:49;;;;;;;4.93;4.33;;;6.50;99.90;;;;;;4731713;29;20506;-93
2021/12/27 05:44:16;;;;;;;4.20;3.90;;;6.50;99.90;;;;;;4732350;29;20490;-92
2021/12/27 05:46:42;;;;;;;6.20;5.70;;;6.50;99.90;;;;;;4746898;29;20734;-91
2021/12/27 05:49:08;;;;;;;4.70;4.30;;;6.50;99.90;;;;;;4745766;29;20473;-93
2021/12/27 05:51:34;;;;;;;7.03;6.33;;;6.60;99.90;;;;;;4731988;29;20197;-91
2021/12/27 05:53:59;;;;;;;7.77;6.83;;;6.50;99.90;;;;;;4750050;29;20252;-91
2021/12/27 05:56:25;;;;;;;5.93;5.40;;;6.50;99.90;;;;;;4731396;29;20282;-92
2021/12/27 05:58:51;;;;;;;6.93;6.33;;;6.60;99.90;;;;;;4746833;29;20224;-92
2021/12/27 06:01:17;;;;;;;5.97;5.27;;;6.60;99.90;;;;;;4736672;29;22091;-92
2021/12/27 06:03:43;;;;;;;4.50;4.10;;;6.50;99.90;;;;;;4735112;29;20712;-92
2021/12/27 06:06:09;;;;;;;5.93;5.43;;;6.50;99.90;;;;;;4728419;29;20205;-93
2021/12/27 06:08:37;;;;;;;6.10;5.50;;;6.40;99.90;;;;;;4747105;29;20220;-91
2021/12/27 06:11:03;;;;;;;6.00;5.50;;;6.30;99.90;;;;;;4733338;29;20470;-93
2021/12/27 06:13:28;;;;;;;5.60;4.90;;;6.30;99.90;;;;;;4743948;29;20566;-92
2021/12/27 06:15:54;;;;;;;6.07;5.47;;;6.20;99.90;;;;;;4729138;29;20213;-93
2021/12/27 06:18:20;;;;;;;6.17;5.57;;;6.10;99.90;;;;;;4745182;29;20209;-93
2021/12/27 06:20:46;;;;;;;5.23;4.73;;;6.00;99.90;;;;;;4744087;29;20208;-93
2021/12/27 06:23:12;;;;;;;5.30;4.80;;;5.90;99.90;;;;;;4731492;29;23164;-92
2021/12/27 06:25:38;;;;;;;5.37;4.87;;;5.70;99.90;;;;;;4746585;29;20449;-93
2021/12/27 06:28:04;;;;;;;7.57;4.90;;;5.60;99.90;;;;;;4730836;29;20924;-93
2021/12/27 06:30:29;;;;;;;5.27;4.77;;;5.60;99.90;;;;;;4745955;29;20525;-94
2021/12/27 06:32:55;;;;;;;5.03;4.63;;;5.60;99.90;;;;;;4746044;29;20213;-94
2021/12/27 06:35:21;;;;;;;4.90;4.57;;;5.50;99.90;;;;;;4731422;29;20469;-93
2021/12/27 06:37:47;;;;;;;4.37;3.97;;;5.40;99.90;;;;;;4741533;29;20752;-93
2021/12/27 06:40:14;;;;;;;5.50;3.90;;;5.40;99.90;;;;;;4746977;29;20198;-93
2021/12/27 06:42:40;;;;;;;4.07;3.77;;;5.40;99.90;;;;;;4748719;29;20637;-93
2021/12/27 06:45:07;;;;;;;3.93;3.53;;;5.30;99.90;;;;;;4746332;29;20959;-94
2021/12/27 06:47:33;;;;;;;3.27;2.97;;;5.20;99.90;;;;;;4731677;29;20491;-93
2021/12/27 06:49:58;;;;;;;3.57;3.27;;;5.20;99.90;;;;;;4731273;29;20471;-93
2021/12/27 06:52:25;;;;;;;2.87;2.57;;;5.10;99.90;;;;;;4733847;29;20329;-92
2021/12/27 06:54:50;;;;;;;4.50;4.10;;;5.10;99.90;;;;;;4732070;29;20316;-93
2021/12/27 06:57:20;;;;;;;3.10;2.80;;;5.00;99.90;;;;;;4735348;29;21636;-93
2021/12/27 06:59:46;;;;;;;3.03;2.73;;;5.00;99.90;;;;;;4733783;29;20197;-92
2021/12/27 07:02:13;;;;;;;2.37;2.17;;;4.90;99.90;;;;;;4733335;29;20959;-93
2021/12/27 07:04:38;;;;;;;2.57;2.37;;;4.90;99.90;;;;;;4737631;29;20598;-94
2021/12/27 07:07:04;;;;;;;3.60;3.30;;;4.80;99.90;;;;;;4748951;29;20471;-94
2021/12/27 07:09:30;;;;;;;2.57;2.37;;;4.80;99.90;;;;;;4729900;29;20213;-92
2021/12/27 07:12:05;;;;;;;2.50;2.40;;;4.80;99.90;;;;;;4744612;29;20304;-93
2021/12/27 07:14:31;;;;;;;2.80;2.60;;;4.70;99.90;;;;;;4732945;29;20829;-94
2021/12/27 07:17:09;;;;;;;2.40;2.30;;;4.70;99.90;;;;;;4731614;29;22014;-94
2021/12/27 07:19:35;;;;;;;2.80;2.60;;;4.70;99.90;;;;;;4733679;29;20261;-93
2021/12/27 07:22:02;;;;;;;2.90;2.43;;;4.70;99.90;;;;;;4744751;29;20803;-94
2021/12/27 07:24:31;;;;;;;3.30;3.07;;;4.60;99.90;;;;;;4734161;29;20228;-93
2021/12/27 07:26:59;;;;;;;2.43;2.30;;;4.60;99.90;;;;;;4727174;29;20451;-92
2021/12/27 07:29:28;;;;;;;2.30;2.20;;;4.60;99.90;;;;;;4740124;29;20493;-93
2021/12/27 07:31:54;;;;;;;3.30;3.10;;;4.60;99.90;;;;;;4742637;29;20466;-93
2021/12/27 07:34:24;;;;;;;3.00;2.63;;;4.60;99.90;;;;;;4736118;29;20544;-93
2021/12/27 07:36:51;;;;;;;3.00;2.80;;;4.60;99.90;;;;;;4740448;29;20216;-92
2021/12/27 07:39:18;;;;;;;2.40;2.20;;;4.60;99.90;;;;;;4743386;29;20508;-92
2021/12/27 07:41:44;;;;;;;2.20;2.10;;;4.50;99.90;;;;;;4742932;29;20474;-94
2021/12/27 07:44:10;;;;;;;2.67;2.47;;;4.60;99.90;;;;;;4744751;29;20503;-92
2021/12/27 07:46:40;;;;;;;2.03;1.93;;;4.60;99.90;;;;;;4741281;29;20482;-93
2021/12/27 07:49:09;;;;;;;2.27;2.07;;;4.70;99.90;;;;;;4741794;29;20569;-93
2021/12/27 07:51:35;;;;;;;2.53;2.33;;;4.60;99.90;;;;;;4725494;29;20469;-92
2021/12/27 07:54:01;;;;;;;2.50;2.30;;;4.60;99.90;;;;;;4742243;29;20483;-94
2021/12/27 07:56:37;;;;;;;;;;;;;;;;;;;;;
2021/12/27 07:59:04;;;;;;;2.70;2.50;;;4.60;99.90;;;;;;4742293;29;20486;-93
2021/12/27 08:01:33;;;;;;;2.93;2.73;;;4.70;99.90;;;;;;4740618;29;20616;-94
2021/12/27 08:04:00;;;;;;;3.20;3.00;;;4.70;99.90;;;;;;4752857;29;20530;-92
2021/12/27 08:06:26;;;;;;;4.93;3.00;;;4.80;99.90;;;;;;4743340;29;20455;-94
2021/12/27 08:08:52;;;;;;;2.70;2.20;;;4.90;99.90;;;;;;4742737;29;20654;-96
2021/12/27 08:11:18;;;;;;;2.57;2.37;;;5.00;99.90;;;;;;4749148;29;20797;-94
2021/12/27 08:13:44;;;;;;;2.77;2.57;;;5.10;99.90;;;;;;4737280;29;20586;-94
2021/12/27 08:16:10;;;;;;;2.53;2.30;;;5.20;99.90;;;;;;4751352;29;20561;-95
2021/12/27 08:18:46;;;;;;;2.40;2.20;;;5.30;99.90;;;;;;4752787;29;20204;-96
2021/12/27 08:21:16;;;;;;;1.80;1.70;;;5.30;99.90;;;;;;4769557;29;20470;-96
2021/12/27 08:23:46;;;;;;;1.70;1.60;;;5.40;99.90;;;;;;4754852;29;20499;-95
2021/12/27 08:26:19;;;;;;;2.13;1.93;;;5.40;99.90;;;;;;4772823;29;20462;-96
2021/12/27 08:28:48;;;;;;;2.00;1.90;;;5.50;99.90;;;;;;4753883;29;20462;-94
2021/12/27 08:31:14;;;;;;;2.00;1.90;;;5.60;99.90;;;;;;4744567;29;20460;-96
2021/12/27 08:33:40;;;;;;;2.13;2.03;;;5.70;99.90;;;;;;4762186;29;20849;-96
2021/12/27 08:36:09;;;;;;;2.07;1.97;;;5.90;99.90;;;;;;4746270;29;20193;-95
2021/12/27 08:38:35;;;;;;;7.33;6.70;;;6.20;99.90;;;;;;4746304;29;20214;-94
2021/12/27 08:41:04;;;;;;;13.93;12.73;;;6.40;99.90;;;;;;4742789;29;20526;-95
2021/12/27 08:43:31;;;;;;;15.23;13.73;;;6.80;99.90;;;;;;4746823;29;20229;-96
2021/12/27 08:45:59;;;;;;;13.33;11.97;;;7.10;99.90;;;;;;4751971;29;20503;-96
2021/12/27 08:48:26;;;;;;;13.63;12.40;;;7.30;99.90;;;;;;4753616;29;21048;-95
2021/12/27 08:51:15;;;;;;;14.80;13.30;;;7.60;99.90;;;;;;4736808;29;20481;-94
2021/12/27 08:53:48;;;;;;;9.70;8.90;;;8.00;99.90;;;;;;4741797;29;20527;-96
2021/12/27 08:56:22;;;;;;;9.13;8.23;;;8.20;99.90;;;;;;4782445;29;20578;-96
2021/12/27 08:58:48;;;;;;;6.30;5.80;;;8.40;99.90;;;;;;4753078;29;20462;-94
2021/12/27 09:01:44;;;;;;;7.30;6.60;;;8.40;99.90;;;;;;4773374;29;20473;-96
2021/12/27 09:04:13;;;;;;;28.67;25.53;;;8.40;99.90;;;;;;4761804;29;20485;-95
2021/12/27 09:09:46;;;;;;;10.93;9.87;;;8.80;99.90;;;;;;4755027;29;20462;-94
2021/12/27 09:12:12;;;;;;;11.50;10.30;;;9.10;99.90;;;;;;4742900;29;21249;-95
2021/12/27 09:14:38;;;;;;;9.80;8.40;;;9.30;99.90;;;;;;4750936;29;20479;-92
2021/12/27 09:17:12;;;;;;;10.77;9.77;;;9.50;99.90;;;;;;4749480;29;20458;-96
2021/12/27 09:19:53;;;;;;;10.17;9.00;;;9.70;99.90;;;;;;4757015;29;20606;-96
2021/12/27 09:22:51;;;;;;;6.77;6.17;;;9.90;99.90;;;;;;4772506;29;20501;-95
2021/12/27 09:25:29;;;;;;;6.70;5.90;;;9.90;99.90;;;;;;4774361;29;20458;-96
2021/12/27 09:27:57;;;;;;;5.97;5.40;;;9.40;99.90;;;;;;4748093;29;21106;-96
2021/12/27 09:30:28;;;;;;;5.20;4.70;;;9.00;99.90;;;;;;4751797;29;20496;-95
2021/12/27 09:33:11;;;;;;;5.70;5.20;;;8.80;99.90;;;;;;4751970;29;21369;-96
2021/12/27 09:35:38;;;;;;;13.13;10.50;;;8.80;99.90;;;;;;4757897;29;20475;-95
2021/12/27 09:38:15;;;;;;;15.27;10.73;;;8.90;99.90;;;;;;4752938;29;20883;-95
2021/12/27 10:37:44;;;;;;;;;;;;;;;;;;;;;
2021/12/27 11:42:50;;;;;;;4.87;3.90;;;12.50;99.90;;;;;;2970269;24;20509;-95
2021/12/27 11:45:44;;;;;;;4.10;3.80;;;13.10;99.90;;;;;;4749973;29;20481;-93
2021/12/27 11:48:23;;;;;;;3.90;3.60;;;13.70;99.90;;;;;;4766126;29;20471;-93
2021/12/27 11:51:32;;;;;;;4.03;3.73;;;13.50;99.90;;;;;;4778605;29;20454;-96
2021/12/27 11:54:31;;;;;;;5.60;4.37;;;13.50;99.90;;;;;;4787975;29;20806;-95
2021/12/27 11:56:57;;;;;;;3.57;3.27;;;12.90;99.90;;;;;;4769584;29;20469;-93
2021/12/27 11:59:26;;;;;;;4.00;3.70;;;12.20;99.90;;;;;;4771212;29;20464;-94
2021/12/27 12:02:24;;;;;;;4.00;3.40;;;12.00;99.90;;;;;;4763946;29;20462;-93
2021/12/27 12:04:55;;;;;;;4.00;3.60;;;11.80;99.90;;;;;;4769414;29;20497;-92
2021/12/27 12:07:50;;;;;;;3.57;3.30;;;11.60;99.90;;;;;;4781429;29;20536;-90
2021/12/27 12:10:23;;;;;;;3.97;3.67;;;11.60;99.90;;;;;;4757877;29;20458;-95
2021/12/27 12:13:26;;;;;;;3.97;3.67;;;11.20;99.90;;;;;;4759954;29;20462;-95
2021/12/27 12:16:17;;;;;;;4.10;3.70;;;11.10;99.90;;;;;;4771725;29;20817;-93
2021/12/27 12:18:51;;;;;;;5.87;3.77;;;11.10;99.90;;;;;;4750637;29;20457;-94
2021/12/27 12:21:50;;;;;;;3.77;3.47;;;11.10;99.90;;;;;;4748728;29;20456;-91
2021/12/27 12:24:17;;;;;;;3.47;3.17;;;11.10;99.90;;;;;;4749918;29;21226;-91
2021/12/27 12:26:51;;;;;;;4.30;3.90;;;10.90;99.90;;;;;;4769931;29;21121;-92
2021/12/27 12:29:17;;;;;;;5.13;4.63;;;10.60;99.90;;;;;;4769118;29;20466;-90
2021/12/27 12:31:43;;;;;;;4.60;4.20;;;10.60;99.90;;;;;;4765651;29;20454;-91
2021/12/27 12:34:20;;;;;;;6.97;4.83;;;10.60;99.90;;;;;;4752477;29;20811;-90
2021/12/27 12:36:52;;;;;;;5.47;5.00;;;10.60;99.90;;;;;;4749433;29;20232;-89
2021/12/27 12:39:20;;;;;;;4.43;4.00;;;10.50;99.90;;;;;;4772085;29;20704;-89
2021/12/27 12:41:47;;;;;;;5.10;4.10;;;10.60;99.90;;;;;;4769613;29;20478;-89
2021/12/27 12:44:14;;;;;;;6.57;4.97;;;11.00;99.90;;;;;;4772117;29;20493;-88
2021/12/27 12:46:45;;;;;;;6.10;5.20;;;11.40;99.90;;;;;;4773798;29;20644;-89
2021/12/27 12:49:19;;;;;;;5.30;4.80;;;11.70;99.90;;;;;;4760735;29;20484;-89
2021/12/27 12:51:59;;;;;;;4.93;4.10;;;12.00;99.90;;;;;;4757087;29;20683;-89
2021/12/27 12:54:34;;;;;;;4.77;4.00;;;12.10;99.90;;;;;;4759695;29;20465;-88
2021/12/27 12:57:02;;;;;;;5.00;4.50;;;12.50;99.90;;;;;;4759093;29;20544;-87
2021/12/27 13:00:03;;;;;;;5.23;4.80;;;12.30;99.90;;;;;;4771416;29;22215;-90
2021/12/27 13:02:31;;;;;;;5.20;4.70;;;12.20;99.90;;;;;;4757191;29;20465;-89
2021/12/27 13:05:08;;;;;;;5.60;4.70;;;12.00;99.90;;;;;;4756446;29;20486;-87
2021/12/27 13:07:40;;;;;;;4.83;4.43;;;11.60;99.90;;;;;;4770160;29;20461;-88
2021/12/27 13:10:36;;;;;;;6.20;5.50;;;11.20;99.90;;;;;;4748818;29;20751;-89
2021/12/27 13:13:10;;;;;;;5.80;5.07;;;11.00;99.90;;;;;;4753131;29;21283;-91
2021/12/27 13:15:38;;;;;;;4.80;4.33;;;10.90;99.90;;;;;;4768646;29;20458;-91
2021/12/27 13:21:13;;;;;;;6.17;5.67;;;10.50;99.90;;;;;;4770772;29;20625;-90
2021/12/27 13:23:44;;;;;;;5.60;5.10;;;10.30;99.90;;;;;;4771798;29;20489;-88
2021/12/27 13:26:16;;;;;;;6.93;5.80;;;10.20;99.90;;;;;;4769938;29;21023;-91
2021/12/27 13:28:49;;;;;;;6.20;5.00;;;10.10;99.90;;;;;;4749553;29;20553;-91
2021/12/27 13:31:23;;;;;;;6.47;4.60;;;10.10;99.90;;;;;;4773737;29;20492;-91
2021/12/27 13:34:07;;;;;;;6.23;5.63;;;10.00;99.90;;;;;;4771682;29;20728;-90
2021/12/27 13:36:44;;;;;;;5.50;5.00;;;10.00;99.90;;;;;;4763431;29;20476;-92
2021/12/27 13:39:13;;;;;;;5.10;4.60;;;10.10;99.90;;;;;;4758156;29;20461;-91
2021/12/27 13:41:40;;;;;;;4.90;4.47;;;10.10;99.90;;;;;;4768090;29;20466;-87
2021/12/27 13:44:14;;;;;;;5.10;4.70;;;10.20;99.90;;;;;;4768349;29;20498;-89
2021/12/27 13:46:55;;;;;;;5.83;5.27;;;10.30;99.90;;;;;;4767365;29;20820;-90
2021/12/27 13:49:21;;;;;;;4.90;4.50;;;10.30;99.90;;;;;;4753566;29;21012;-87
2021/12/27 13:52:03;;;;;;;4.53;3.90;;;10.30;99.90;;;;;;4762824;29;20739;-89
2021/12/27 13:54:51;;;;;;;82.83;74.47;;;10.20;99.90;;;;;;4768078;29;20208;-90
2021/12/27 13:57:18;;;;;;;7.37;5.80;;;10.30;99.90;;;;;;4766934;29;20462;-89
2021/12/27 13:59:47;;;;;;;5.07;4.67;;;10.30;99.90;;;;;;4754967;29;20476;-89
2021/12/27 14:02:13;;;;;;;5.27;4.87;;;10.30;99.90;;;;;;4754511;29;22208;-89
2021/12/27 14:04:39;;;;;;;6.10;5.53;;;10.20;99.90;;;;;;4770701;29;20513;-88
2021/12/27 14:07:08;;;;;;;5.20;4.70;;;10.20;99.90;;;;;;4767512;29;20558;-89
2021/12/27 14:09:36;;;;;;;4.97;4.57;;;10.20;99.90;;;;;;4767733;29;20220;-90
2021/12/27 14:12:05;;;;;;;5.87;5.23;;;10.10;99.90;;;;;;4749073;29;20491;-89
2021/12/27 14:14:37;;;;;;;5.53;4.90;;;10.00;99.90;;;;;;4754929;29;21095;-88
2021/12/27 14:17:14;;;;;;;4.83;4.43;;;9.90;99.90;;;;;;4750324;29;20549;-88
2021/12/27 14:19:42;;;;;;;4.93;4.53;;;9.90;99.90;;;;;;4756194;29;20477;-89
2021/12/27 14:22:23;;;;;;;5.17;4.67;;;9.80;99.90;;;;;;4771841;29;20462;-89
2021/12/27 14:24:58;;;;;;;6.90;6.20;;;9.70;99.90;;;;;;4766793;29;20935;-88
2021/12/27 14:27:28;;;;;;;6.30;5.70;;;9.70;99.90;;;;;;4749990;29;21309;-89
2021/12/27 14:30:20;;;;;;;5.73;5.23;;;9.60;99.90;;;;;;4753094;29;20652;-89
2021/12/27 14:32:52;;;;;;;6.07;5.47;;;9.60;99.90;;;;;;4756951;29;21018;-88
2021/12/27 14:35:28;;;;;;;9.00;5.50;;;9.60;99.90;;;;;;4747709;29;20449;-89
2021/12/27 14:38:00;;;;;;;5.80;5.20;;;9.60;99.90;;;;;;4766921;29;21082;-88
2021/12/27 14:40:28;;;;;;;5.23;4.73;;;9.50;99.90;;;;;;4751247;29;20512;-88
2021/12/27 14:42:55;;;;;;;5.37;4.87;;;9.50;99.90;;;;;;4750069;29;20480;-88
2021/12/27 14:45:23;;;;;;;5.57;5.07;;;9.50;99.90;;;;;;4754079;29;20466;-89
2021/12/27 14:47:51;;;;;;;5.40;4.93;;;9.50;99.90;;;;;;4769441;29;20518;-88
2021/12/27 14:50:25;;;;;;;5.40;4.90;;;9.50;99.90;;;;;;4756547;29;20470;-91
2021/12/27 14:52:55;;;;;;;7.23;4.93;;;9.50;99.90;;;;;;4766021;29;20546;-89
2021/12/27 14:55:22;;;;;;;5.20;4.70;;;9.50;99.90;;;;;;4753680;29;20478;-89
2021/12/27 14:57:48;;;;;;;4.47;4.07;;;9.40;99.90;;;;;;4757239;29;20461;-90
2021/12/27 15:00:18;;;;;;;5.70;5.20;;;9.40;99.90;;;;;;4747554;29;20553;-89
2021/12/27 15:02:44;;;;;;;5.30;4.80;;;9.30;99.90;;;;;;4766764;29;20545;-91
2021/12/27 15:05:10;;;;;;;4.97;4.57;;;9.30;99.90;;;;;;4765471;29;20460;-89
2021/12/27 15:07:36;;;;;;;5.20;4.80;;;9.30;99.90;;;;;;4752120;29;20457;-90
2021/12/27 15:10:05;;;;;;;4.97;4.57;;;9.30;99.90;;;;;;4769289;29;20386;-89
2021/12/27 15:12:31;;;;;;;4.63;4.20;;;9.30;99.90;;;;;;4754736;29;20548;-89
2021/12/27 15:14:56;;;;;;;4.97;4.53;;;9.20;99.90;;;;;;4768608;29;20471;-88
2021/12/27 15:17:26;;;;;;;5.40;4.90;;;9.10;99.90;;;;;;4752529;29;20205;-89
2021/12/27 15:19:52;;;;;;;5.47;4.83;;;9.00;99.90;;;;;;4755902;29;20202;-91